sensor_id;sensor_type;location;lat;lon;timestamp;temperature;humidity
25716;DHT22;13573;50.936;4.328;2023-02-11T00:02:54;5.10;99.90
25716;DHT22;13573;50.936;4.328;2023-02-11T00:07:47;6.40;99.90
25716;DHT22;13573;50.936;4.328;2023-02-11T00:10:14;5.00;99.90
25716;DHT22;13573;50.936;4.328;2023-02-11T00:12:40;4.80;99.90
25716;DHT22;13573;50.936;4.328;2023-02-11T00:15:08;6.10;99.90
25716;DHT22;13573;50.936;4.328;2023-02-11T00:17:35;5.60;99.90
25716;DHT22;13573;50.936;4.328;2023-02-11T00:20:02;5.60;99.90
25716;DHT22;13573;50.936;4.328;2023-02-11T00:22:30;6.00;99.90
25716;DHT22;13573;50.936;4.328;2023-02-11T00:24:57;5.60;99.90
25716;DHT22;13573;50.936;4.328;2023-02-11T00:27:24;5.80;99.90
25716;DHT22;13573;50.936;4.328;2023-02-11T00:29:51;5.40;99.90
25716;DHT22;13573;50.936;4.328;2023-02-11T00:32:18;5.90;99.90
25716;DHT22;13573;50.936;4.328;2023-02-11T00:34:44;5.90;99.90
25716;DHT22;13573;50.936;4.328;2023-02-11T00:37:11;6.30;99.90
25716;DHT22;13573;50.936;4.328;2023-02-11T00:39:38;6.00;99.90
25716;DHT22;13573;50.936;4.328;2023-02-11T00:42:05;5.80;99.90
25716;DHT22;13573;50.936;4.328;2023-02-11T00:44:32;5.70;99.90
25716;DHT22;13573;50.936;4.328;2023-02-11T00:46:59;5.70;99.90
25716;DHT22;13573;50.936;4.328;2023-02-11T00:49:26;5.70;99.90
25716;DHT22;13573;50.936;4.328;2023-02-11T00:51:52;5.90;99.90
25716;DHT22;13573;50.936;4.328;2023-02-11T00:54:20;6.00;99.90
25716;DHT22;13573;50.936;4.328;2023-02-11T00:56:46;5.80;99.90
25716;DHT22;13573;50.936;4.328;2023-02-11T00:59:13;5.40;99.90
25716;DHT22;13573;50.936;4.328;2023-02-11T01:01:40;4.40;99.90
25716;DHT22;13573;50.936;4.328;2023-02-11T01:04:06;5.70;99.90
25716;DHT22;13573;50.936;4.328;2023-02-11T01:06:33;4.40;99.90
25716;DHT22;13573;50.936;4.328;2023-02-11T01:08:59;4.00;99.90
25716;DHT22;13573;50.936;4.328;2023-02-11T01:11:26;5.90;99.90
25716;DHT22;13573;50.936;4.328;2023-02-11T01:13:53;5.60;99.90
25716;DHT22;13573;50.936;4.328;2023-02-11T01:16:20;6.20;99.90
25716;DHT22;13573;50.936;4.328;2023-02-11T01:18:49;5.60;99.90
25716;DHT22;13573;50.936;4.328;2023-02-11T01:21:15;5.90;99.90
25716;DHT22;13573;50.936;4.328;2023-02-11T01:23:42;5.50;99.90
25716;DHT22;13573;50.936;4.328;2023-02-11T01:26:08;5.60;99.90
25716;DHT22;13573;50.936;4.328;2023-02-11T01:28:37;5.80;99.90
25716;DHT22;13573;50.936;4.328;2023-02-11T01:31:04;6.50;99.90
25716;DHT22;13573;50.936;4.328;2023-02-11T01:33:30;5.40;99.90
25716;DHT22;13573;50.936;4.328;2023-02-11T01:36:01;6.00;99.90
25716;DHT22;13573;50.936;4.328;2023-02-11T01:38:29;5.50;99.90
25716;DHT22;13573;50.936;4.328;2023-02-11T01:40:59;4.50;99.90
25716;DHT22;13573;50.936;4.328;2023-02-11T01:43:28;5.70;99.90
25716;DHT22;13573;50.936;4.328;2023-02-11T01:46:03;5.60;99.90
25716;DHT22;13573;50.936;4.328;2023-02-11T01:48:35;5.30;99.90
25716;DHT22;13573;50.936;4.328;2023-02-11T01:51:06;5.90;99.90
25716;DHT22;13573;50.936;4.328;2023-02-11T01:53:35;5.50;99.90
25716;DHT22;13573;50.936;4.328;2023-02-11T01:56:08;5.60;99.90
25716;DHT22;13573;50.936;4.328;2023-02-11T01:58:43;5.70;99.90
25716;DHT22;13573;50.936;4.328;2023-02-11T02:01:13;4.20;99.90
25716;DHT22;13573;50.936;4.328;2023-02-11T02:06:16;5.40;99.90
25716;DHT22;13573;50.936;4.328;2023-02-11T02:08:47;4.40;99.90
25716;DHT22;13573;50.936;4.328;2023-02-11T02:11:15;6.00;99.90
25716;DHT22;13573;50.936;4.328;2023-02-11T02:13:42;5.60;99.90
25716;DHT22;13573;50.936;4.328;2023-02-11T02:16:13;5.90;99.90
25716;DHT22;13573;50.936;4.328;2023-02-11T02:19:02;5.80;99.90
25716;DHT22;13573;50.936;4.328;2023-02-11T02:21:43;5.90;99.90
25716;DHT22;13573;50.936;4.328;2023-02-11T02:29:48;6.60;99.90
25716;DHT22;13573;50.936;4.328;2023-02-11T02:38:01;5.90;99.90
25716;DHT22;13573;50.936;4.328;2023-02-11T02:40:33;5.60;99.90
25716;DHT22;13573;50.936;4.328;2023-02-11T02:43:00;6.20;99.90
25716;DHT22;13573;50.936;4.328;2023-02-11T02:45:28;5.90;99.90
25716;DHT22;13573;50.936;4.328;2023-02-11T02:47:55;6.00;99.90
25716;DHT22;13573;50.936;4.328;2023-02-11T02:50:25;5.80;99.90
25716;DHT22;13573;50.936;4.328;2023-02-11T02:53:17;6.60;99.90
25716;DHT22;13573;50.936;4.328;2023-02-11T02:56:29;6.20;99.90
25716;DHT22;13573;50.936;4.328;2023-02-11T03:01:38;6.20;99.90
25716;DHT22;13573;50.936;4.328;2023-02-11T03:04:07;4.90;99.90
25716;DHT22;13573;50.936;4.328;2023-02-11T03:06:46;5.20;99.90
25716;DHT22;13573;50.936;4.328;2023-02-11T03:09:22;5.10;99.90
25716;DHT22;13573;50.936;4.328;2023-02-11T03:11:49;6.10;99.90
25716;DHT22;13573;50.936;4.328;2023-02-11T03:14:17;5.10;99.90
25716;DHT22;13573;50.936;4.328;2023-02-11T03:16:45;6.30;99.90
25716;DHT22;13573;50.936;4.328;2023-02-11T03:19:18;6.40;99.90
25716;DHT22;13573;50.936;4.328;2023-02-11T03:24:19;5.90;99.90
25716;DHT22;13573;50.936;4.328;2023-02-11T03:26:49;6.20;99.90
25716;DHT22;13573;50.936;4.328;2023-02-11T03:32:28;5.20;99.90
25716;DHT22;13573;50.936;4.328;2023-02-11T03:34:48;6.10;99.90
25716;DHT22;13573;50.936;4.328;2023-02-11T03:37:19;6.50;99.90
25716;DHT22;13573;50.936;4.328;2023-02-11T03:39:50;6.70;99.90
25716;DHT22;13573;50.936;4.328;2023-02-11T03:42:20;6.20;99.90
25716;DHT22;13573;50.936;4.328;2023-02-11T03:44:51;6.40;99.90
25716;DHT22;13573;50.936;4.328;2023-02-11T03:47:20;4.90;99.90
25716;DHT22;13573;50.936;4.328;2023-02-11T03:49:49;6.30;99.90
25716;DHT22;13573;50.936;4.328;2023-02-11T03:52:18;5.80;99.90
25716;DHT22;13573;50.936;4.328;2023-02-11T03:54:49;6.30;99.90
25716;DHT22;13573;50.936;4.328;2023-02-11T03:57:17;6.30;99.90
25716;DHT22;13573;50.936;4.328;2023-02-11T03:59:53;6.60;99.90
25716;DHT22;13573;50.936;4.328;2023-02-11T04:04:50;6.40;99.90
25716;DHT22;13573;50.936;4.328;2023-02-11T04:07:16;6.60;99.90
25716;DHT22;13573;50.936;4.328;2023-02-11T04:09:43;6.00;99.90
25716;DHT22;13573;50.936;4.328;2023-02-11T04:12:10;6.50;99.90
25716;DHT22;13573;50.936;4.328;2023-02-11T04:14:38;6.60;99.90
25716;DHT22;13573;50.936;4.328;2023-02-11T04:17:04;6.60;99.90
25716;DHT22;13573;50.936;4.328;2023-02-11T04:19:31;6.60;99.90
25716;DHT22;13573;50.936;4.328;2023-02-11T04:21:59;6.30;99.90
25716;DHT22;13573;50.936;4.328;2023-02-11T04:24:26;7.00;99.90
25716;DHT22;13573;50.936;4.328;2023-02-11T04:26:53;6.50;99.90
25716;DHT22;13573;50.936;4.328;2023-02-11T04:29:20;6.60;99.90
25716;DHT22;13573;50.936;4.328;2023-02-11T04:31:47;6.30;99.90
25716;DHT22;13573;50.936;4.328;2023-02-11T04:34:14;6.50;99.90
25716;DHT22;13573;50.936;4.328;2023-02-11T04:36:42;6.50;99.90
25716;DHT22;13573;50.936;4.328;2023-02-11T04:39:09;6.20;99.90
25716;DHT22;13573;50.936;4.328;2023-02-11T04:41:36;6.20;99.90
25716;DHT22;13573;50.936;4.328;2023-02-11T04:44:03;6.40;99.90
25716;DHT22;13573;50.936;4.328;2023-02-11T04:46:30;7.20;99.90
25716;DHT22;13573;50.936;4.328;2023-02-11T04:48:57;6.90;99.90
25716;DHT22;13573;50.936;4.328;2023-02-11T04:51:23;5.30;99.90
25716;DHT22;13573;50.936;4.328;2023-02-11T04:53:51;6.60;99.90
25716;DHT22;13573;50.936;4.328;2023-02-11T04:56:18;6.80;99.90
25716;DHT22;13573;50.936;4.328;2023-02-11T04:58:44;6.40;99.90
25716;DHT22;13573;50.936;4.328;2023-02-11T05:01:14;6.30;99.90
25716;DHT22;13573;50.936;4.328;2023-02-11T05:03:42;6.20;99.90
25716;DHT22;13573;50.936;4.328;2023-02-11T05:06:09;6.30;99.90
25716;DHT22;13573;50.936;4.328;2023-02-11T05:08:37;6.70;99.90
25716;DHT22;13573;50.936;4.328;2023-02-11T05:11:04;7.70;99.90
25716;DHT22;13573;50.936;4.328;2023-02-11T05:13:31;6.50;99.90
25716;DHT22;13573;50.936;4.328;2023-02-11T05:15:58;6.20;99.90
25716;DHT22;13573;50.936;4.328;2023-02-11T05:18:24;6.10;99.90
25716;DHT22;13573;50.936;4.328;2023-02-11T05:20:51;6.30;99.90
25716;DHT22;13573;50.936;4.328;2023-02-11T05:23:17;6.50;99.90
25716;DHT22;13573;50.936;4.328;2023-02-11T05:25:44;6.20;99.90
25716;DHT22;13573;50.936;4.328;2023-02-11T05:28:11;6.20;99.90
25716;DHT22;13573;50.936;4.328;2023-02-11T05:30:37;6.20;99.90
25716;DHT22;13573;50.936;4.328;2023-02-11T05:33:04;6.10;99.90
25716;DHT22;13573;50.936;4.328;2023-02-11T05:37:57;6.80;99.90
25716;DHT22;13573;50.936;4.328;2023-02-11T05:40:24;5.30;99.90
25716;DHT22;13573;50.936;4.328;2023-02-11T05:42:51;7.20;99.90
25716;DHT22;13573;50.936;4.328;2023-02-11T05:45:17;6.50;99.90
25716;DHT22;13573;50.936;4.328;2023-02-11T05:47:44;6.20;99.90
25716;DHT22;13573;50.936;4.328;2023-02-11T05:50:11;6.30;99.90
25716;DHT22;13573;50.936;4.328;2023-02-11T05:52:38;6.40;99.90
25716;DHT22;13573;50.936;4.328;2023-02-11T05:55:06;6.10;99.90
25716;DHT22;13573;50.936;4.328;2023-02-11T05:57:33;6.70;99.90
25716;DHT22;13573;50.936;4.328;2023-02-11T06:00:00;6.50;99.90
25716;DHT22;13573;50.936;4.328;2023-02-11T06:04:54;6.70;99.90
25716;DHT22;13573;50.936;4.328;2023-02-11T06:07:21;7.20;99.90
25716;DHT22;13573;50.936;4.328;2023-02-11T06:09:48;7.10;99.90
25716;DHT22;13573;50.936;4.328;2023-02-11T06:12:15;6.70;99.90
25716;DHT22;13573;50.936;4.328;2023-02-11T06:14:42;6.80;99.90
25716;DHT22;13573;50.936;4.328;2023-02-11T06:17:09;5.40;99.90
25716;DHT22;13573;50.936;4.328;2023-02-11T06:19:35;5.60;99.90
25716;DHT22;13573;50.936;4.328;2023-02-11T06:22:02;6.90;99.90
25716;DHT22;13573;50.936;4.328;2023-02-11T06:24:29;6.50;99.90
25716;DHT22;13573;50.936;4.328;2023-02-11T06:26:56;7.30;99.90
25716;DHT22;13573;50.936;4.328;2023-02-11T06:29:23;6.80;99.90
25716;DHT22;13573;50.936;4.328;2023-02-11T06:31:49;5.40;99.90
25716;DHT22;13573;50.936;4.328;2023-02-11T06:34:16;6.80;99.90
25716;DHT22;13573;50.936;4.328;2023-02-11T06:36:43;6.80;99.90
25716;DHT22;13573;50.936;4.328;2023-02-11T06:39:11;6.80;99.90
25716;DHT22;13573;50.936;4.328;2023-02-11T06:41:38;6.70;99.90
25716;DHT22;13573;50.936;4.328;2023-02-11T06:44:06;6.90;99.90
25716;DHT22;13573;50.936;4.328;2023-02-11T06:46:33;6.80;99.90
25716;DHT22;13573;50.936;4.328;2023-02-11T06:49:01;6.70;99.90
25716;DHT22;13573;50.936;4.328;2023-02-11T06:51:28;5.30;99.90
25716;DHT22;13573;50.936;4.328;2023-02-11T06:53:56;6.30;99.90
25716;DHT22;13573;50.936;4.328;2023-02-11T06:56:23;5.50;99.90
25716;DHT22;13573;50.936;4.328;2023-02-11T06:58:53;6.60;99.90
25716;DHT22;13573;50.936;4.328;2023-02-11T07:01:23;7.00;99.90
25716;DHT22;13573;50.936;4.328;2023-02-11T07:03:51;6.70;99.90
25716;DHT22;13573;50.936;4.328;2023-02-11T07:06:21;6.70;99.90
25716;DHT22;13573;50.936;4.328;2023-02-11T07:08:50;6.80;99.90
25716;DHT22;13573;50.936;4.328;2023-02-11T07:11:20;6.80;99.90
25716;DHT22;13573;50.936;4.328;2023-02-11T07:13:49;6.90;99.90
25716;DHT22;13573;50.936;4.328;2023-02-11T07:16:17;7.10;99.90
25716;DHT22;13573;50.936;4.328;2023-02-11T07:18:45;6.70;99.90
25716;DHT22;13573;50.936;4.328;2023-02-11T07:21:14;6.80;99.90
25716;DHT22;13573;50.936;4.328;2023-02-11T07:23:42;7.20;99.90
25716;DHT22;13573;50.936;4.328;2023-02-11T07:26:12;6.80;99.90
25716;DHT22;13573;50.936;4.328;2023-02-11T07:28:39;6.80;99.90
25716;DHT22;13573;50.936;4.328;2023-02-11T07:31:09;6.90;99.90
25716;DHT22;13573;50.936;4.328;2023-02-11T07:33:37;6.80;99.90
25716;DHT22;13573;50.936;4.328;2023-02-11T07:36:06;7.10;99.90
25716;DHT22;13573;50.936;4.328;2023-02-11T07:38:34;7.10;99.90
25716;DHT22;13573;50.936;4.328;2023-02-11T07:41:03;7.10;99.90
25716;DHT22;13573;50.936;4.328;2023-02-11T07:43:30;6.90;99.90
25716;DHT22;13573;50.936;4.328;2023-02-11T07:48:24;7.50;99.90
25716;DHT22;13573;50.936;4.328;2023-02-11T07:50:51;7.20;99.90
25716;DHT22;13573;50.936;4.328;2023-02-11T07:53:17;6.90;99.90
25716;DHT22;13573;50.936;4.328;2023-02-11T07:55:44;6.30;99.90
25716;DHT22;13573;50.936;4.328;2023-02-11T07:58:10;7.20;99.90
25716;DHT22;13573;50.936;4.328;2023-02-11T08:00:37;7.10;99.90
25716;DHT22;13573;50.936;4.328;2023-02-11T08:03:04;7.10;99.90
25716;DHT22;13573;50.936;4.328;2023-02-11T08:05:33;7.10;99.90
25716;DHT22;13573;50.936;4.328;2023-02-11T08:08:02;7.60;99.90
25716;DHT22;13573;50.936;4.328;2023-02-11T08:10:30;7.70;99.90
25716;DHT22;13573;50.936;4.328;2023-02-11T08:12:58;7.40;99.90
25716;DHT22;13573;50.936;4.328;2023-02-11T08:15:24;7.60;99.90
25716;DHT22;13573;50.936;4.328;2023-02-11T08:17:51;7.60;99.90
25716;DHT22;13573;50.936;4.328;2023-02-11T08:20:18;7.50;99.90
25716;DHT22;13573;50.936;4.328;2023-02-11T08:22:45;7.70;99.90
25716;DHT22;13573;50.936;4.328;2023-02-11T08:25:12;7.50;99.90
25716;DHT22;13573;50.936;4.328;2023-02-11T08:27:38;7.70;99.90
25716;DHT22;13573;50.936;4.328;2023-02-11T08:30:05;7.70;99.90
25716;DHT22;13573;50.936;4.328;2023-02-11T08:32:33;7.40;99.90
25716;DHT22;13573;50.936;4.328;2023-02-11T08:35:00;7.70;99.90
25716;DHT22;13573;50.936;4.328;2023-02-11T08:37:27;7.60;99.90
25716;DHT22;13573;50.936;4.328;2023-02-11T08:39:54;8.10;99.90
25716;DHT22;13573;50.936;4.328;2023-02-11T08:42:20;7.40;99.90
25716;DHT22;13573;50.936;4.328;2023-02-11T08:44:47;7.90;99.90
25716;DHT22;13573;50.936;4.328;2023-02-11T08:47:15;7.80;99.90
25716;DHT22;13573;50.936;4.328;2023-02-11T08:49:44;7.80;99.90
25716;DHT22;13573;50.936;4.328;2023-02-11T08:52:11;8.20;99.90
25716;DHT22;13573;50.936;4.328;2023-02-11T08:54:38;7.50;99.90
25716;DHT22;13573;50.936;4.328;2023-02-11T08:57:05;7.60;99.90
25716;DHT22;13573;50.936;4.328;2023-02-11T08:59:32;7.70;99.90
25716;DHT22;13573;50.936;4.328;2023-02-11T09:01:59;7.80;99.90
25716;DHT22;13573;50.936;4.328;2023-02-11T09:04:26;7.70;99.90
25716;DHT22;13573;50.936;4.328;2023-02-11T09:06:52;7.60;99.90
25716;DHT22;13573;50.936;4.328;2023-02-11T09:09:19;7.70;99.90
25716;DHT22;13573;50.936;4.328;2023-02-11T09:11:47;6.70;99.90
25716;DHT22;13573;50.936;4.328;2023-02-11T09:14:17;8.00;99.90
25716;DHT22;13573;50.936;4.328;2023-02-11T09:16:46;7.90;99.90
25716;DHT22;13573;50.936;4.328;2023-02-11T09:19:12;8.10;99.90
25716;DHT22;13573;50.936;4.328;2023-02-11T09:21:39;7.90;99.90
25716;DHT22;13573;50.936;4.328;2023-02-11T09:24:07;7.90;99.90
25716;DHT22;13573;50.936;4.328;2023-02-11T09:26:35;7.90;99.90
25716;DHT22;13573;50.936;4.328;2023-02-11T09:29:03;8.20;99.90
25716;DHT22;13573;50.936;4.328;2023-02-11T09:31:32;8.10;99.90
25716;DHT22;13573;50.936;4.328;2023-02-11T09:34:02;8.60;99.90
25716;DHT22;13573;50.936;4.328;2023-02-11T09:36:33;8.10;99.90
25716;DHT22;13573;50.936;4.328;2023-02-11T09:39:04;8.00;99.90
25716;DHT22;13573;50.936;4.328;2023-02-11T09:41:58;7.70;99.90
25716;DHT22;13573;50.936;4.328;2023-02-11T09:44:30;8.10;99.90
25716;DHT22;13573;50.936;4.328;2023-02-11T09:47:00;7.90;99.90
25716;DHT22;13573;50.936;4.328;2023-02-11T09:49:47;8.30;99.90
25716;DHT22;13573;50.936;4.328;2023-02-11T09:52:36;8.40;99.90
25716;DHT22;13573;50.936;4.328;2023-02-11T09:55:05;8.20;99.90
25716;DHT22;13573;50.936;4.328;2023-02-11T09:57:34;8.40;99.90
25716;DHT22;13573;50.936;4.328;2023-02-11T10:00:20;7.00;99.90
25716;DHT22;13573;50.936;4.328;2023-02-11T10:02:57;8.60;99.90
25716;DHT22;13573;50.936;4.328;2023-02-11T10:05:42;8.60;99.90
25716;DHT22;13573;50.936;4.328;2023-02-11T10:08:13;8.30;99.90
25716;DHT22;13573;50.936;4.328;2023-02-11T10:11:00;8.50;99.90
25716;DHT22;13573;50.936;4.328;2023-02-11T10:13:37;8.50;99.90
25716;DHT22;13573;50.936;4.328;2023-02-11T10:16:19;8.50;99.90
25716;DHT22;13573;50.936;4.328;2023-02-11T10:19:00;8.40;99.90
25716;DHT22;13573;50.936;4.328;2023-02-11T10:22:12;8.60;99.90
25716;DHT22;13573;50.936;4.328;2023-02-11T10:24:21;8.40;99.90
25716;DHT22;13573;50.936;4.328;2023-02-11T10:26:48;8.30;99.90
25716;DHT22;13573;50.936;4.328;2023-02-11T10:29:39;8.80;99.90
25716;DHT22;13573;50.936;4.328;2023-02-11T10:32:14;8.70;99.90
25716;DHT22;13573;50.936;4.328;2023-02-11T10:34:40;8.40;99.90
25716;DHT22;13573;50.936;4.328;2023-02-11T10:42:05;8.70;99.90
25716;DHT22;13573;50.936;4.328;2023-02-11T10:44:36;8.80;99.90
25716;DHT22;13573;50.936;4.328;2023-02-11T10:47:10;8.90;99.90
25716;DHT22;13573;50.936;4.328;2023-02-11T10:49:40;8.70;99.90
25716;DHT22;13573;50.936;4.328;2023-02-11T10:52:14;8.80;99.90
25716;DHT22;13573;50.936;4.328;2023-02-11T11:00:26;8.90;99.90
25716;DHT22;13573;50.936;4.328;2023-02-11T11:02:54;8.70;99.90
25716;DHT22;13573;50.936;4.328;2023-02-11T11:05:29;8.50;99.90
25716;DHT22;13573;50.936;4.328;2023-02-11T11:07:59;9.40;99.90
25716;DHT22;13573;50.936;4.328;2023-02-11T11:13:02;8.80;99.90
25716;DHT22;13573;50.936;4.328;2023-02-11T11:15:31;9.00;99.90
25716;DHT22;13573;50.936;4.328;2023-02-11T11:18:17;8.90;99.90
25716;DHT22;13573;50.936;4.328;2023-02-11T11:21:03;9.00;99.90
25716;DHT22;13573;50.936;4.328;2023-02-11T11:23:33;9.10;99.90
25716;DHT22;13573;50.936;4.328;2023-02-11T11:26:10;9.20;99.90
25716;DHT22;13573;50.936;4.328;2023-02-11T11:28:50;9.30;99.90
25716;DHT22;13573;50.936;4.328;2023-02-11T11:31:30;10.10;99.90
25716;DHT22;13573;50.936;4.328;2023-02-11T11:34:00;9.20;99.90
25716;DHT22;13573;50.936;4.328;2023-02-11T11:36:35;10.60;99.90
25716;DHT22;13573;50.936;4.328;2023-02-11T11:41:39;10.80;99.90
25716;DHT22;13573;50.936;4.328;2023-02-11T11:46:50;9.50;99.90
25716;DHT22;13573;50.936;4.328;2023-02-11T11:49:24;9.10;99.90
25716;DHT22;13573;50.936;4.328;2023-02-11T11:53:15;10.60;99.90
25716;DHT22;13573;50.936;4.328;2023-02-11T11:54:59;10.40;99.90
25716;DHT22;13573;50.936;4.328;2023-02-11T11:57:27;9.60;99.90
25716;DHT22;13573;50.936;4.328;2023-02-11T11:59:57;10.20;99.90
25716;DHT22;13573;50.936;4.328;2023-02-11T12:02:49;9.30;99.90
25716;DHT22;13573;50.936;4.328;2023-02-11T12:08:24;8.80;99.90
25716;DHT22;13573;50.936;4.328;2023-02-11T12:11:15;10.20;99.90
25716;DHT22;13573;50.936;4.328;2023-02-11T12:14:33;10.00;99.90
25716;DHT22;13573;50.936;4.328;2023-02-11T12:19:31;9.60;99.90
25716;DHT22;13573;50.936;4.328;2023-02-11T12:22:04;9.60;99.90
25716;DHT22;13573;50.936;4.328;2023-02-11T12:27:16;9.60;99.90
25716;DHT22;13573;50.936;4.328;2023-02-11T12:29:54;10.50;99.90
25716;DHT22;13573;50.936;4.328;2023-02-11T12:38:08;9.70;99.90
25716;DHT22;13573;50.936;4.328;2023-02-11T12:40:40;10.70;99.90
25716;DHT22;13573;50.936;4.328;2023-02-11T12:43:20;9.60;99.90
25716;DHT22;13573;50.936;4.328;2023-02-11T12:48:34;10.10;99.90
25716;DHT22;13573;50.936;4.328;2023-02-11T12:51:07;9.70;99.90
25716;DHT22;13573;50.936;4.328;2023-02-11T12:54:09;10.00;99.90
25716;DHT22;13573;50.936;4.328;2023-02-11T12:56:39;9.70;99.90
25716;DHT22;13573;50.936;4.328;2023-02-11T12:59:14;9.80;99.90
25716;DHT22;13573;50.936;4.328;2023-02-11T13:01:42;10.70;99.90
25716;DHT22;13573;50.936;4.328;2023-02-11T13:04:19;11.00;99.90
25716;DHT22;13573;50.936;4.328;2023-02-11T13:06:50;11.10;99.90
25716;DHT22;13573;50.936;4.328;2023-02-11T13:09:24;10.80;99.90
25716;DHT22;13573;50.936;4.328;2023-02-11T13:11:54;11.30;99.90
25716;DHT22;13573;50.936;4.328;2023-02-11T13:14:24;9.80;99.90
25716;DHT22;13573;50.936;4.328;2023-02-11T13:16:54;11.20;99.90
25716;DHT22;13573;50.936;4.328;2023-02-11T13:19:29;10.90;99.90
25716;DHT22;13573;50.936;4.328;2023-02-11T13:22:18;9.90;99.90
25716;DHT22;13573;50.936;4.328;2023-02-11T13:24:50;11.10;99.90
25716;DHT22;13573;50.936;4.328;2023-02-11T13:27:25;10.60;99.90
25716;DHT22;13573;50.936;4.328;2023-02-11T13:30:17;10.50;99.90
25716;DHT22;13573;50.936;4.328;2023-02-11T13:35:38;10.10;99.90
25716;DHT22;13573;50.936;4.328;2023-02-11T13:38:23;10.50;99.90
25716;DHT22;13573;50.936;4.328;2023-02-11T13:41:02;10.50;99.90
25716;DHT22;13573;50.936;4.328;2023-02-11T13:46:01;10.70;99.90
25716;DHT22;13573;50.936;4.328;2023-02-11T13:48:31;10.60;99.90
25716;DHT22;13573;50.936;4.328;2023-02-11T13:51:04;10.80;99.90
25716;DHT22;13573;50.936;4.328;2023-02-11T13:53:47;10.70;99.90
25716;DHT22;13573;50.936;4.328;2023-02-11T13:56:23;9.20;99.90
25716;DHT22;13573;50.936;4.328;2023-02-11T13:58:51;11.10;99.90
25716;DHT22;13573;50.936;4.328;2023-02-11T14:04:04;10.90;99.90
25716;DHT22;13573;50.936;4.328;2023-02-11T14:07:20;11.00;99.90
25716;DHT22;13573;50.936;4.328;2023-02-11T14:09:50;10.80;99.90
25716;DHT22;13573;50.936;4.328;2023-02-11T14:12:25;11.30;99.90
25716;DHT22;13573;50.936;4.328;2023-02-11T14:17:45;10.90;99.90
25716;DHT22;13573;50.936;4.328;2023-02-11T14:22:52;9.50;99.90
25716;DHT22;13573;50.936;4.328;2023-02-11T14:25:23;10.70;99.90
25716;DHT22;13573;50.936;4.328;2023-02-11T14:28:01;11.40;99.90
25716;DHT22;13573;50.936;4.328;2023-02-11T14:30:51;9.20;99.90
25716;DHT22;13573;50.936;4.328;2023-02-11T14:33:30;10.70;99.90
25716;DHT22;13573;50.936;4.328;2023-02-11T14:38:47;10.60;99.90
25716;DHT22;13573;50.936;4.328;2023-02-11T14:41:23;10.50;99.90
25716;DHT22;13573;50.936;4.328;2023-02-11T14:43:56;9.20;99.90
25716;DHT22;13573;50.936;4.328;2023-02-11T14:46:24;9.10;99.90
25716;DHT22;13573;50.936;4.328;2023-02-11T14:48:58;11.20;99.90
25716;DHT22;13573;50.936;4.328;2023-02-11T14:51:29;9.50;99.90
25716;DHT22;13573;50.936;4.328;2023-02-11T14:54:16;11.40;99.90
25716;DHT22;13573;50.936;4.328;2023-02-11T14:56:44;9.40;99.90
25716;DHT22;13573;50.936;4.328;2023-02-11T14:59:17;9.40;99.90
25716;DHT22;13573;50.936;4.328;2023-02-11T15:04:25;10.90;99.90
25716;DHT22;13573;50.936;4.328;2023-02-11T15:06:53;11.80;99.90
25716;DHT22;13573;50.936;4.328;2023-02-11T15:09:28;11.20;99.90
25716;DHT22;13573;50.936;4.328;2023-02-11T15:11:55;11.50;99.90
25716;DHT22;13573;50.936;4.328;2023-02-11T15:14:26;9.50;99.90
25716;DHT22;13573;50.936;4.328;2023-02-11T15:16:57;11.00;99.90
25716;DHT22;13573;50.936;4.328;2023-02-11T15:19:30;11.10;99.90
25716;DHT22;13573;50.936;4.328;2023-02-11T15:21:58;10.70;99.90
25716;DHT22;13573;50.936;4.328;2023-02-11T15:24:28;11.00;99.90
25716;DHT22;13573;50.936;4.328;2023-02-11T15:26:58;9.30;99.90
25716;DHT22;13573;50.936;4.328;2023-02-11T15:29:28;10.90;99.90
25716;DHT22;13573;50.936;4.328;2023-02-11T15:32:03;11.10;99.90
25716;DHT22;13573;50.936;4.328;2023-02-11T15:34:32;11.10;99.90
25716;DHT22;13573;50.936;4.328;2023-02-11T15:36:58;9.50;99.90
25716;DHT22;13573;50.936;4.328;2023-02-11T15:39:41;10.60;99.90
25716;DHT22;13573;50.936;4.328;2023-02-11T15:42:21;11.90;99.90
25716;DHT22;13573;50.936;4.328;2023-02-11T15:45:06;9.60;99.90
25716;DHT22;13573;50.936;4.328;2023-02-11T15:47:19;9.40;99.90
25716;DHT22;13573;50.936;4.328;2023-02-11T15:49:47;11.40;99.90
25716;DHT22;13573;50.936;4.328;2023-02-11T15:52:21;9.50;99.90
25716;DHT22;13573;50.936;4.328;2023-02-11T15:54:46;10.90;99.90
25716;DHT22;13573;50.936;4.328;2023-02-11T15:57:14;11.20;99.90
25716;DHT22;13573;50.936;4.328;2023-02-11T16:02:17;11.30;99.90
25716;DHT22;13573;50.936;4.328;2023-02-11T16:04:54;10.90;99.90
25716;DHT22;13573;50.936;4.328;2023-02-11T16:10:00;10.70;99.90
25716;DHT22;13573;50.936;4.328;2023-02-11T16:12:27;9.80;99.90
25716;DHT22;13573;50.936;4.328;2023-02-11T16:14:55;10.90;99.90
25716;DHT22;13573;50.936;4.328;2023-02-11T16:17:26;10.80;99.90
25716;DHT22;13573;50.936;4.328;2023-02-11T16:19:54;11.00;99.90
25716;DHT22;13573;50.936;4.328;2023-02-11T16:22:26;10.80;99.90
25716;DHT22;13573;50.936;4.328;2023-02-11T16:24:57;10.60;99.90
25716;DHT22;13573;50.936;4.328;2023-02-11T16:27:28;10.80;99.90
25716;DHT22;13573;50.936;4.328;2023-02-11T16:29:56;11.20;99.90
25716;DHT22;13573;50.936;4.328;2023-02-11T16:32:25;11.60;99.90
25716;DHT22;13573;50.936;4.328;2023-02-11T16:34:55;11.00;99.90
25716;DHT22;13573;50.936;4.328;2023-02-11T16:37:24;9.60;99.90
25716;DHT22;13573;50.936;4.328;2023-02-11T16:39:53;10.70;99.90
25716;DHT22;13573;50.936;4.328;2023-02-11T16:42:20;9.50;99.90
25716;DHT22;13573;50.936;4.328;2023-02-11T16:44:47;9.30;99.90
25716;DHT22;13573;50.936;4.328;2023-02-11T16:47:19;11.30;99.90
25716;DHT22;13573;50.936;4.328;2023-02-11T16:49:46;9.40;99.90
25716;DHT22;13573;50.936;4.328;2023-02-11T16:52:15;9.70;99.90
25716;DHT22;13573;50.936;4.328;2023-02-11T16:54:42;9.20;99.90
25716;DHT22;13573;50.936;4.328;2023-02-11T16:57:16;9.50;99.90
25716;DHT22;13573;50.936;4.328;2023-02-11T16:59:43;9.40;99.90
25716;DHT22;13573;50.936;4.328;2023-02-11T17:02:29;10.80;99.90
25716;DHT22;13573;50.936;4.328;2023-02-11T17:05:00;11.90;99.90
25716;DHT22;13573;50.936;4.328;2023-02-11T17:07:28;11.10;99.90
25716;DHT22;13573;50.936;4.328;2023-02-11T17:09:55;11.00;99.90
25716;DHT22;13573;50.936;4.328;2023-02-11T17:12:22;9.50;99.90
25716;DHT22;13573;50.936;4.328;2023-02-11T17:17:18;9.20;99.90
25716;DHT22;13573;50.936;4.328;2023-02-11T17:19:46;10.80;99.90
25716;DHT22;13573;50.936;4.328;2023-02-11T17:22:13;9.60;99.90
25716;DHT22;13573;50.936;4.328;2023-02-11T17:24:41;9.30;99.90
25716;DHT22;13573;50.936;4.328;2023-02-11T17:27:10;9.20;99.90
25716;DHT22;13573;50.936;4.328;2023-02-11T17:29:37;9.20;99.90
25716;DHT22;13573;50.936;4.328;2023-02-11T17:32:04;11.10;99.90
25716;DHT22;13573;50.936;4.328;2023-02-11T17:34:31;11.00;99.90
25716;DHT22;13573;50.936;4.328;2023-02-11T17:36:58;11.50;99.90
25716;DHT22;13573;50.936;4.328;2023-02-11T17:44:21;9.20;99.90
25716;DHT22;13573;50.936;4.328;2023-02-11T17:46:51;11.40;99.90